Time;durP1;ratioP1;P1;durP2;ratioP2;P2;SDS_P1;SDS_P2;PMS_P1;PMS_P2;Temp;Humidity;BMP_temperature;BMP_pressure;BME280_temperature;BME280_humidity;BME280_pressure;Samples;Min_cycle;Max_cycle;Signal;HPM_P1;HPM_P2
2023/10/09 00:00:51;;;;;;;9.20;5.05;;;13.90;99.90;;;;;;6212571;22;20336;-87
2023/10/09 00:03:23;;;;;;;13.55;5.50;;;13.90;99.90;;;;;;6238255;22;20285;-88
2023/10/09 00:05:52;;;;;;;10.77;5.40;;;13.90;99.90;;;;;;6237680;22;20208;-87
2023/10/09 00:08:30;;;;;;;11.27;5.38;;;13.90;99.90;;;;;;6211406;22;20020;-88
2023/10/09 00:10:58;;;;;;;10.27;5.32;;;13.90;99.90;;;;;;6213057;22;20128;-87
2023/10/09 00:13:32;;;;;;;14.32;5.60;;;13.90;99.90;;;;;;6237147;22;20016;-87
2023/10/09 00:16:13;;;;;;;11.68;5.30;;;13.90;99.90;;;;;;6212609;22;20099;-86
2023/10/09 00:18:39;;;;;;;11.63;5.68;;;13.90;99.90;;;;;;6211974;22;20023;-88
2023/10/09 00:21:12;;;;;;;10.75;5.05;;;13.90;99.90;;;;;;6238363;22;20324;-87
2023/10/09 00:23:39;;;;;;;11.20;5.53;;;13.90;99.90;;;;;;6211435;22;20095;-87
2023/10/09 00:26:16;;;;;;;11.75;5.28;;;13.90;99.90;;;;;;6237914;22;20009;-87
2023/10/09 00:28:47;;;;;;;11.15;5.57;;;13.90;99.90;;;;;;6211969;22;20512;-88
2023/10/09 00:31:16;;;;;;;15.82;5.80;;;13.90;99.90;;;;;;6212206;22;20528;-87
2023/10/09 00:33:45;;;;;;;14.05;6.03;;;13.90;99.90;;;;;;6212296;22;20015;-88
2023/10/09 00:36:14;;;;;;;11.52;5.97;;;13.90;99.90;;;;;;6237723;22;20243;-87
2023/10/09 00:38:40;;;;;;;10.82;5.65;;;13.90;99.90;;;;;;6210925;22;20019;-88
2023/10/09 00:41:10;;;;;;;10.88;5.25;;;13.90;99.90;;;;;;6238083;22;20018;-87
2023/10/09 00:43:37;;;;;;;14.20;5.70;;;13.90;99.90;;;;;;6211067;22;20113;-87
2023/10/09 00:49:01;;;;;;;12.20;6.03;;;13.90;99.90;;;;;;6237598;22;20497;-88
2023/10/09 00:51:34;;;;;;;13.15;6.45;;;13.90;99.90;;;;;;6237362;22;20090;-88
2023/10/09 00:54:06;;;;;;;14.77;6.60;;;13.90;99.90;;;;;;6210667;22;20345;-87
2023/10/09 00:56:42;;;;;;;11.77;6.28;;;13.90;99.90;;;;;;6238546;22;20020;-88
2023/10/09 00:59:08;;;;;;;14.85;6.82;;;13.90;99.90;;;;;;6213574;22;20102;-88
2023/10/09 01:01:35;;;;;;;13.82;6.53;;;14.00;99.90;;;;;;6239514;22;20038;-87
2023/10/09 01:04:06;;;;;;;12.68;7.22;;;13.90;99.90;;;;;;6238585;22;20534;-87
2023/10/09 01:06:34;;;;;;;17.58;7.45;;;13.90;99.90;;;;;;6239018;22;20384;-87
2023/10/09 01:09:14;;;;;;;20.02;8.70;;;14.00;99.90;;;;;;6238208;22;20416;-87
2023/10/09 01:11:48;;;;;;;16.45;7.70;;;13.90;99.90;;;;;;6213373;22;20016;-87
2023/10/09 01:14:15;;;;;;;13.27;7.50;;;14.00;99.90;;;;;;6239253;22;20086;-88
2023/10/09 01:16:46;;;;;;;15.65;8.20;;;14.00;99.90;;;;;;6238871;22;20019;-87
2023/10/09 01:19:24;;;;;;;20.15;8.05;;;13.90;99.90;;;;;;6212442;22;20355;-88
2023/10/09 01:21:54;;;;;;;14.52;8.23;;;13.90;99.90;;;;;;6214125;22;20050;-87
2023/10/09 01:24:20;;;;;;;15.18;7.80;;;13.90;99.90;;;;;;6212761;22;20008;-87
2023/10/09 01:26:47;;;;;;;16.30;7.90;;;13.90;99.90;;;;;;6238243;22;20389;-87
2023/10/09 01:29:16;;;;;;;17.40;8.48;;;13.90;99.90;;;;;;6213753;22;20051;-88
2023/10/09 01:31:54;;;;;;;21.58;9.90;;;13.90;99.90;;;;;;6182769;22;20016;-83
2023/10/09 01:34:45;;;;;;;22.02;9.27;;;13.80;99.90;;;;;;6202417;23;20028;-83
2023/10/09 01:37:18;;;;;;;22.23;9.43;;;13.80;99.90;;;;;;6205548;23;20590;-83
2023/10/09 01:39:48;;;;;;;18.88;9.80;;;13.80;99.90;;;;;;6206907;23;20428;-83
2023/10/09 01:42:31;;;;;;;20.27;10.38;;;13.80;99.90;;;;;;6206224;23;20016;-83
2023/10/09 01:47:51;;;;;;;22.80;11.15;;;13.80;99.90;;;;;;6231201;23;20020;-83
2023/10/09 01:50:24;;;;;;;25.48;11.55;;;13.80;99.90;;;;;;6232066;23;20008;-83
2023/10/09 01:52:53;;;;;;;22.95;12.20;;;13.80;99.90;;;;;;6231291;23;20012;-83
2023/10/09 02:00:56;;;;;;;26.13;12.70;;;13.80;99.90;;;;;;6232150;23;20093;-83
2023/10/09 02:03:26;;;;;;;23.38;11.90;;;13.80;99.90;;;;;;6207056;23;20050;-83
2023/10/09 02:06:03;;;;;;;26.92;13.23;;;13.70;99.90;;;;;;6258339;22;20012;-83
2023/10/09 02:08:29;;;;;;;25.92;12.02;;;13.70;99.90;;;;;;6205144;23;20035;-83
2023/10/09 02:10:56;;;;;;;27.10;13.20;;;13.80;99.90;;;;;;6208047;23;20271;-83
2023/10/09 02:13:34;;;;;;;22.88;12.02;;;13.80;99.90;;;;;;6206249;23;20016;-83
2023/10/09 02:16:15;;;;;;;28.45;13.88;;;13.80;99.90;;;;;;6207337;23;20081;-83
2023/10/09 02:18:53;;;;;;;27.92;13.75;;;13.80;99.90;;;;;;6257080;22;20012;-83
2023/10/09 02:21:39;;;;;;;23.65;12.32;;;13.80;99.90;;;;;;6232819;23;20043;-83
2023/10/09 02:24:26;;;;;;;25.63;12.75;;;13.80;99.90;;;;;;6230725;23;20008;-83
2023/10/09 02:29:17;;;;;;;25.13;12.55;;;13.80;99.90;;;;;;6231808;23;20034;-83
2023/10/09 02:31:51;;;;;;;28.35;13.93;;;13.80;99.90;;;;;;6205948;23;20111;-83
2023/10/09 02:34:21;;;;;;;23.88;13.00;;;13.80;99.90;;;;;;6231018;23;20023;-83
2023/10/09 02:36:57;;;;;;;24.35;13.75;;;13.80;99.90;;;;;;6207377;23;20324;-83
2023/10/09 02:39:26;;;;;;;32.13;14.38;;;13.80;99.90;;;;;;6231079;23;20336;-83
2023/10/09 02:42:19;;;;;;;25.08;13.80;;;13.70;99.90;;;;;;6205081;23;20016;-83
2023/10/09 02:44:50;;;;;;;28.60;14.70;;;13.70;99.90;;;;;;6231976;23;20101;-83
2023/10/09 02:47:29;;;;;;;25.38;13.48;;;13.70;99.90;;;;;;6205423;23;20452;-83
2023/10/09 02:50:06;;;;;;;29.85;14.13;;;13.70;99.90;;;;;;6231713;23;20094;-83
2023/10/09 02:52:40;;;;;;;28.02;15.02;;;13.70;99.90;;;;;;6205667;23;20302;-83
2023/10/09 02:55:12;;;;;;;24.48;14.43;;;13.70;99.90;;;;;;6231898;23;20304;-83
2023/10/09 02:57:41;;;;;;;29.13;15.25;;;13.70;99.90;;;;;;6205625;23;20015;-83
2023/10/09 03:00:18;;;;;;;27.42;15.30;;;13.70;99.90;;;;;;6232138;23;20024;-83
2023/10/09 03:02:46;;;;;;;30.75;15.65;;;13.70;99.90;;;;;;6206523;23;20094;-83
2023/10/09 03:05:12;;;;;;;28.20;15.38;;;13.70;99.90;;;;;;6206296;23;20104;-83
2023/10/09 03:07:42;;;;;;;32.88;16.08;;;13.70;99.90;;;;;;6230972;23;20340;-83
2023/10/09 03:10:09;;;;;;;29.45;15.48;;;13.70;99.90;;;;;;6207022;23;20016;-83
2023/10/09 03:12:35;;;;;;;34.08;16.30;;;13.70;99.90;;;;;;6206091;23;20020;-83
2023/10/09 03:15:02;;;;;;;36.40;16.58;;;13.70;99.90;;;;;;6206687;23;20023;-83
2023/10/09 03:17:28;;;;;;;29.80;15.40;;;13.80;99.90;;;;;;6206071;23;20078;-83
2023/10/09 03:19:54;;;;;;;34.85;17.25;;;13.80;99.90;;;;;;6231485;23;20020;-83
2023/10/09 03:22:20;;;;;;;34.08;17.05;;;13.80;99.90;;;;;;6205698;23;20016;-83
2023/10/09 03:24:46;;;;;;;33.50;16.85;;;13.80;99.90;;;;;;6231944;23;20012;-83
2023/10/09 03:27:14;;;;;;;34.30;17.67;;;13.80;99.90;;;;;;6205206;23;20091;-84
2023/10/09 03:29:40;;;;;;;34.38;16.85;;;13.80;99.90;;;;;;6207238;23;20012;-83
2023/10/09 03:32:06;;;;;;;36.22;18.35;;;13.90;99.90;;;;;;6205185;23;20077;-83
2023/10/09 03:34:32;;;;;;;34.97;19.17;;;13.90;99.90;;;;;;6205915;23;20488;-83
2023/10/09 03:37:04;;;;;;;34.20;19.73;;;13.90;99.90;;;;;;6206046;23;20061;-83
2023/10/09 03:39:41;;;;;;;39.17;19.30;;;14.00;99.90;;;;;;6205413;23;20360;-83
2023/10/09 03:42:11;;;;;;;40.95;20.67;;;14.00;99.90;;;;;;6204910;23;20020;-83
2023/10/09 03:44:44;;;;;;;45.50;21.30;;;14.00;99.90;;;;;;6206425;23;20012;-84
2023/10/09 03:47:10;;;;;;;39.10;19.98;;;14.00;99.90;;;;;;6231175;23;20047;-83
2023/10/09 03:49:39;;;;;;;39.40;20.98;;;14.10;99.90;;;;;;6206136;23;20016;-83
2023/10/09 03:52:06;;;;;;;44.03;21.77;;;14.20;99.90;;;;;;6230944;23;20019;-83
2023/10/09 03:54:34;;;;;;;40.25;22.17;;;14.20;99.90;;;;;;6256853;22;20162;-83
2023/10/09 03:57:01;;;;;;;44.10;21.65;;;14.30;99.90;;;;;;6204378;23;20020;-83
2023/10/09 03:59:30;;;;;;;40.45;21.67;;;14.30;99.90;;;;;;6206030;23;20035;-83
2023/10/09 04:01:58;;;;;;;47.38;22.27;;;14.30;99.90;;;;;;6231555;23;20012;-83
2023/10/09 04:04:28;;;;;;;45.40;22.67;;;14.40;99.90;;;;;;6206336;23;20023;-83
2023/10/09 04:06:54;;;;;;;43.78;21.90;;;14.40;99.90;;;;;;6205841;23;20114;-83
2023/10/09 04:11:56;;;;;;;46.85;23.05;;;14.40;99.90;;;;;;6230497;23;20073;-83
2023/10/09 04:14:35;;;;;;;39.72;21.23;;;14.50;99.90;;;;;;6231068;23;20320;-83
2023/10/09 04:17:06;;;;;;;42.40;22.83;;;14.50;99.90;;;;;;6256470;22;20464;-83
2023/10/09 04:19:48;;;;;;;42.15;23.83;;;14.60;99.90;;;;;;6205142;23;20131;-83
2023/10/09 04:22:26;;;;;;;45.95;22.13;;;14.60;99.90;;;;;;6205085;23;20024;-83
2023/10/09 04:24:52;;;;;;;40.53;21.48;;;14.70;99.90;;;;;;6206532;23;20074;-83
2023/10/09 04:27:26;;;;;;;43.83;22.40;;;14.70;99.90;;;;;;6230296;23;20008;-83
2023/10/09 04:29:54;;;;;;;41.33;22.67;;;14.80;99.90;;;;;;6207014;23;20028;-83
2023/10/09 04:32:24;;;;;;;38.80;21.38;;;14.90;99.90;;;;;;6257726;22;20086;-83
2023/10/09 04:34:57;;;;;;;44.30;21.60;;;15.00;99.90;;;;;;6233813;23;20228;-83
2023/10/09 04:37:39;;;;;;;41.28;20.13;;;15.10;99.90;;;;;;6207983;23;20356;-83
2023/10/09 04:40:12;;;;;;;31.83;19.40;;;15.30;99.90;;;;;;6208163;23;20012;-83
2023/10/09 04:42:38;;;;;;;44.17;21.25;;;15.30;99.90;;;;;;6232489;23;20019;-83
2023/10/09 04:48:32;;;;;;;35.90;20.58;;;15.40;99.90;;;;;;6232782;23;20467;-82
2023/10/09 04:52:55;;;;;;;36.13;19.75;;;15.40;99.90;;;;;;6231476;23;20028;-83
2023/10/09 04:55:24;;;;;;;40.03;20.38;;;15.40;99.90;;;;;;6206564;23;20082;-83
2023/10/09 04:58:13;;;;;;;40.80;21.33;;;15.30;99.90;;;;;;6232718;23;20098;-82
2023/10/09 05:03:12;;;;;;;37.95;20.65;;;15.40;99.90;;;;;;6231574;23;20453;-83
2023/10/09 05:16:25;;;;;;;37.97;20.20;;;15.50;99.90;;;;;;6232216;23;20020;-83
2023/10/09 05:19:28;;;;;;;37.95;19.83;;;15.50;99.90;;;;;;6207043;23;20039;-83
2023/10/09 05:21:58;;;;;;;35.80;20.85;;;15.50;99.90;;;;;;6233399;23;20190;-83
2023/10/09 05:24:24;;;;;;;36.20;19.55;;;15.50;99.90;;;;;;6207071;23;20023;-83
2023/10/09 05:32:04;;;;;;;33.45;19.80;;;15.50;99.90;;;;;;6232606;23;20020;-83
2023/10/09 05:34:34;;;;;;;35.05;19.45;;;15.60;99.90;;;;;;6234029;23;20024;-83
2023/10/09 05:37:24;;;;;;;34.33;18.05;;;15.60;99.90;;;;;;6233227;23;20051;-83
2023/10/09 05:47:53;;;;;;;29.55;16.60;;;15.70;99.90;;;;;;6231124;23;20024;-83
2023/10/09 06:03:48;;;;;;;27.13;13.73;;;15.70;99.90;;;;;;6230309;23;20020;-83
2023/10/09 06:06:32;;;;;;;29.30;13.05;;;15.80;99.90;;;;;;6230654;23;20055;-83
2023/10/09 06:11:41;;;;;;;21.60;11.98;;;15.90;99.90;;;;;;6230670;23;20109;-83
2023/10/09 06:29:37;;;;;;;21.17;10.00;;;16.00;99.90;;;;;;6231941;23;20097;-83
2023/10/09 06:32:37;;;;;;;22.20;10.73;;;16.00;99.90;;;;;;6205399;23;20012;-83
2023/10/09 06:35:16;;;;;;;23.15;10.48;;;16.00;99.90;;;;;;6225567;23;20035;-83
2023/10/09 06:58:58;;;;;;;18.30;8.50;;;16.20;99.90;;;;;;6231069;23;20047;-84
2023/10/09 07:04:10;;;;;;;19.15;9.70;;;16.20;99.90;;;;;;6231824;23;20020;-84
2023/10/09 07:15:00;;;;;;;18.67;8.10;;;16.20;99.90;;;;;;6232485;23;20024;-84
2023/10/09 07:20:15;;;;;;;16.15;7.68;;;16.20;99.90;;;;;;6232496;23;20039;-84
2023/10/09 07:22:52;;;;;;;19.55;8.13;;;16.20;99.90;;;;;;6205970;23;20483;-84
2023/10/09 07:28:18;;;;;;;21.00;8.23;;;16.20;99.90;;;;;;6230802;23;20031;-84
2023/10/09 07:30:46;;;;;;;21.27;8.98;;;16.20;99.90;;;;;;6206773;23;20150;-85
2023/10/09 07:35:54;;;;;;;18.42;8.27;;;16.20;99.90;;;;;;6231609;23;20043;-85
2023/10/09 07:38:34;;;;;;;25.13;8.43;;;16.20;99.90;;;;;;6206117;23;20282;-84
2023/10/09 07:49:08;;;;;;;17.00;8.55;;;16.30;99.90;;;;;;6231340;23;20465;-84
2023/10/09 07:51:36;;;;;;;19.75;8.70;;;16.30;99.90;;;;;;6207250;23;20191;-84
2023/10/09 07:54:08;;;;;;;16.65;8.90;;;16.30;99.90;;;;;;6205520;23;20066;-84
2023/10/09 07:56:53;;;;;;;16.52;9.48;;;16.30;99.90;;;;;;6205668;23;20028;-84
2023/10/09 07:59:19;;;;;;;18.23;8.68;;;16.30;99.90;;;;;;6206080;23;20027;-84
2023/10/09 08:02:02;;;;;;;15.13;8.90;;;16.40;99.90;;;;;;6206484;23;20187;-84
2023/10/09 08:04:39;;;;;;;17.50;8.65;;;16.30;99.90;;;;;;6232553;23;20012;-84
2023/10/09 08:07:09;;;;;;;15.90;8.77;;;16.40;99.90;;;;;;6205591;23;20126;-84
2023/10/09 08:15:26;;;;;;;21.75;8.77;;;16.40;99.90;;;;;;6178257;22;20024;-85
2023/10/09 08:17:59;;;;;;;17.17;9.43;;;16.40;99.90;;;;;;6207043;23;20078;-84
2023/10/09 08:20:36;;;;;;;23.13;10.13;;;16.40;99.90;;;;;;6207079;23;20015;-85
2023/10/09 08:23:04;;;;;;;19.48;8.70;;;16.40;99.90;;;;;;6205864;23;20012;-85
2023/10/09 08:25:35;;;;;;;18.65;9.13;;;16.40;99.90;;;;;;6232348;23;20014;-84
2023/10/09 08:35:55;;;;;;;14.38;8.43;;;16.60;99.90;;;;;;6231667;23;20091;-84
2023/10/09 08:38:23;;;;;;;17.45;8.45;;;16.50;99.90;;;;;;6204671;23;20103;-84
2023/10/09 08:40:50;;;;;;;14.10;8.45;;;16.50;99.90;;;;;;6206772;23;20043;-84
2023/10/09 08:43:21;;;;;;;24.40;8.65;;;16.40;99.90;;;;;;6230291;23;20009;-83
2023/10/09 08:45:53;;;;;;;23.23;9.10;;;16.40;99.90;;;;;;6206134;23;20499;-84
2023/10/09 08:48:22;;;;;;;19.00;8.30;;;16.50;99.90;;;;;;6206404;23;20038;-84
2023/10/09 08:50:50;;;;;;;16.65;8.25;;;16.40;99.90;;;;;;6231917;23;20016;-83
2023/10/09 08:53:17;;;;;;;16.75;8.35;;;16.40;99.90;;;;;;6204967;23;20512;-84
2023/10/09 08:55:43;;;;;;;14.90;7.93;;;16.40;99.90;;;;;;6231934;23;20020;-84
2023/10/09 08:58:20;;;;;;;15.98;8.00;;;16.40;99.90;;;;;;6205234;23;20397;-83
2023/10/09 09:00:47;;;;;;;16.00;7.90;;;16.40;99.90;;;;;;6206291;23;20008;-84
2023/10/09 09:03:17;;;;;;;22.98;10.15;;;16.40;99.90;;;;;;6205610;23;20012;-84
2023/10/09 09:05:51;;;;;;;15.38;8.23;;;16.60;99.90;;;;;;6206342;23;20240;-84
2023/10/09 09:08:25;;;;;;;17.10;7.97;;;16.60;99.90;;;;;;6204831;23;20050;-85
2023/10/09 09:11:13;;;;;;;14.68;7.70;;;16.70;99.90;;;;;;6206564;23;20087;-84
2023/10/09 09:13:48;;;;;;;15.50;6.90;;;16.60;99.90;;;;;;6205967;23;20020;-85
2023/10/09 09:16:22;;;;;;;14.27;5.93;;;16.80;99.90;;;;;;6206726;23;20345;-84
2023/10/09 09:19:11;;;;;;;15.77;5.60;;;16.80;99.90;;;;;;6207293;23;20111;-84
2023/10/09 09:21:42;;;;;;;15.95;6.72;;;16.90;99.90;;;;;;6208768;23;20089;-85
2023/10/09 09:27:00;;;;;;;12.00;6.32;;;16.90;99.90;;;;;;6232481;23;20028;-84
2023/10/09 09:29:38;;;;;;;15.63;6.55;;;16.90;99.90;;;;;;6208580;23;20016;-85
2023/10/09 09:32:20;;;;;;;11.88;6.05;;;16.90;99.90;;;;;;6232465;23;20138;-84
2023/10/09 09:34:49;;;;;;;14.15;6.55;;;16.80;99.90;;;;;;6208005;23;20020;-84
2023/10/09 09:37:28;;;;;;;20.33;6.95;;;16.80;99.90;;;;;;6206685;23;20078;-84
2023/10/09 09:40:00;;;;;;;16.02;6.38;;;16.80;99.90;;;;;;6207501;23;20097;-84
2023/10/09 09:42:28;;;;;;;11.23;6.15;;;16.90;99.90;;;;;;6206589;23;20016;-83
2023/10/09 09:44:55;;;;;;;17.02;6.03;;;17.00;99.90;;;;;;6207964;23;20341;-85
2023/10/09 09:47:26;;;;;;;15.52;6.07;;;17.00;99.90;;;;;;6206444;23;20032;-84
2023/10/09 09:49:59;;;;;;;12.15;5.82;;;17.00;99.90;;;;;;6205524;23;20020;-84
2023/10/09 09:52:53;;;;;;;13.05;5.95;;;17.00;99.90;;;;;;6206384;23;20376;-85
2023/10/09 09:55:22;;;;;;;13.05;5.60;;;17.10;99.90;;;;;;6232655;23;20016;-84
2023/10/09 09:57:52;;;;;;;10.88;5.70;;;17.20;99.90;;;;;;6232317;23;20023;-84
2023/10/09 10:00:42;;;;;;;15.27;5.22;;;17.20;99.90;;;;;;6207552;23;20449;-84
2023/10/09 10:03:34;;;;;;;11.93;6.05;;;17.20;99.90;;;;;;6207100;23;20083;-85
2023/10/09 10:06:05;;;;;;;10.93;6.07;;;17.30;99.90;;;;;;6216740;23;20012;-85
2023/10/09 10:08:32;;;;;;;12.55;5.55;;;17.30;99.90;;;;;;6206481;23;20475;-85
2023/10/09 10:11:05;;;;;;;11.73;5.47;;;17.20;99.90;;;;;;6207964;23;20020;-85
2023/10/09 10:13:46;;;;;;;14.85;5.55;;;17.30;99.90;;;;;;6206914;23;20018;-84
2023/10/09 10:16:13;;;;;;;11.02;5.30;;;17.20;99.90;;;;;;6207355;23;20074;-84
2023/10/09 10:19:40;;;;;;;16.95;5.70;;;17.20;99.90;;;;;;6206885;23;20437;-84
2023/10/09 10:21:51;;;;;;;14.55;5.07;;;17.20;99.90;;;;;;6228959;23;20016;-84
2023/10/09 10:24:28;;;;;;;13.40;5.85;;;17.20;99.90;;;;;;6206242;23;20016;-84
2023/10/09 10:27:44;;;;;;;16.17;6.20;;;17.20;99.90;;;;;;6232078;23;20023;-84
2023/10/09 10:30:18;;;;;;;9.90;5.68;;;17.20;99.90;;;;;;6232295;23;20027;-84
2023/10/09 10:33:09;;;;;;;9.95;5.10;;;17.20;99.90;;;;;;6205942;23;20129;-84
2023/10/09 10:35:55;;;;;;;10.40;5.43;;;17.10;99.90;;;;;;6206937;23;20476;-84
2023/10/09 10:38:36;;;;;;;10.38;5.18;;;17.10;99.90;;;;;;6230950;23;20042;-85
2023/10/09 10:41:19;;;;;;;11.48;5.38;;;17.20;99.90;;;;;;6206962;23;20026;-85
2023/10/09 10:46:44;;;;;;;12.45;4.43;;;17.10;99.90;;;;;;6203099;23;20540;-83
2023/10/09 10:49:16;;;;;;;12.63;4.95;;;17.10;99.90;;;;;;6206358;23;20019;-84
2023/10/09 10:51:48;;;;;;;10.52;4.40;;;17.20;99.90;;;;;;6206722;23;20367;-84
2023/10/09 10:56:59;;;;;;;15.63;4.55;;;17.20;99.90;;;;;;6231961;23;20016;-84
2023/10/09 10:59:38;;;;;;;16.33;4.90;;;17.20;99.90;;;;;;6232190;23;20020;-84
2023/10/09 11:12:37;;;;;;;15.23;4.63;;;17.10;99.90;;;;;;6231008;23;20551;-84
2023/10/09 11:15:06;;;;;;;12.18;5.85;;;17.10;99.90;;;;;;6207024;23;20018;-84
2023/10/09 11:17:35;;;;;;;16.88;5.00;;;17.10;99.90;;;;;;6206508;23;20309;-84
2023/10/09 11:20:32;;;;;;;15.75;5.70;;;17.10;99.90;;;;;;6231646;23;20016;-84
2023/10/09 11:25:39;;;;;;;12.32;4.72;;;17.10;99.90;;;;;;6232369;23;20073;-84
2023/10/09 11:31:17;;;;;;;22.58;5.07;;;17.10;99.90;;;;;;6230976;23;20445;-84
2023/10/09 11:33:53;;;;;;;11.48;5.32;;;17.10;99.90;;;;;;6206292;23;20341;-84
2023/10/09 11:36:35;;;;;;;12.23;4.10;;;17.10;99.90;;;;;;6230488;23;20015;-85
2023/10/09 11:39:14;;;;;;;15.82;4.25;;;17.10;99.90;;;;;;6205140;23;20336;-85
2023/10/09 11:41:44;;;;;;;13.65;4.57;;;17.00;99.90;;;;;;6206034;23;20016;-85
2023/10/09 11:44:19;;;;;;;11.32;3.88;;;17.10;99.90;;;;;;6206301;23;20114;-85
2023/10/09 11:46:58;;;;;;;;;;;17.10;99.90;;;;;;6206744;23;20102;-85
2023/10/09 11:49:44;;;;;;;10.02;3.92;;;17.00;99.90;;;;;;6256972;22;20130;-85
2023/10/09 11:52:35;;;;;;;13.18;5.15;;;17.00;99.90;;;;;;6205432;23;20020;-84
2023/10/09 11:54:56;;;;;;;12.35;3.67;;;17.10;99.90;;;;;;6231056;23;20094;-84
2023/10/09 11:57:30;;;;;;;14.18;3.85;;;17.50;99.90;;;;;;6205347;23;20016;-83
2023/10/09 11:59:58;;;;;;;9.43;3.72;;;17.70;99.90;;;;;;6205928;23;20051;-84
2023/10/09 12:02:23;;;;;;;9.45;3.25;;;17.70;99.90;;;;;;6205092;23;20016;-85
2023/10/09 12:04:49;;;;;;;7.55;3.28;;;17.60;99.90;;;;;;6206410;23;20480;-84
2023/10/09 12:07:15;;;;;;;6.18;2.60;;;17.60;99.90;;;;;;6204941;23;20022;-85
2023/10/09 12:09:40;;;;;;;6.20;2.85;;;17.50;99.90;;;;;;6206341;23;20023;-84
2023/10/09 12:12:11;;;;;;;7.90;2.45;;;17.50;99.90;;;;;;6230519;23;20016;-84
2023/10/09 12:14:40;;;;;;;6.63;2.90;;;17.50;99.90;;;;;;6206775;23;20109;-84
2023/10/09 12:17:07;;;;;;;7.85;2.80;;;17.50;99.90;;;;;;6205305;23;20452;-84
2023/10/09 12:19:34;;;;;;;8.77;2.95;;;17.50;99.90;;;;;;6206386;23;20058;-84
2023/10/09 12:22:06;;;;;;;10.80;2.97;;;17.50;99.90;;;;;;6230604;23;20016;-85
2023/10/09 12:24:33;;;;;;;5.80;2.83;;;17.50;99.90;;;;;;6230759;23;20445;-84
2023/10/09 12:27:01;;;;;;;5.90;2.38;;;17.50;99.90;;;;;;6230272;23;20012;-84
2023/10/09 12:29:30;;;;;;;13.38;3.17;;;17.40;99.90;;;;;;6232037;23;20048;-84
2023/10/09 12:31:59;;;;;;;8.10;3.00;;;17.40;99.90;;;;;;6205364;23;20150;-84
2023/10/09 12:34:28;;;;;;;6.35;2.50;;;17.50;99.90;;;;;;6205773;23;20293;-84
2023/10/09 12:36:54;;;;;;;7.07;2.53;;;17.60;99.90;;;;;;6232065;23;20020;-84
2023/10/09 12:39:21;;;;;;;12.25;3.33;;;17.70;99.90;;;;;;6204791;23;20023;-84
2023/10/09 12:41:48;;;;;;;9.75;2.80;;;17.70;99.90;;;;;;6231127;23;20580;-83
2023/10/09 12:44:14;;;;;;;9.85;2.90;;;17.70;99.90;;;;;;6230262;23;20043;-84
2023/10/09 12:46:51;;;;;;;8.43;2.80;;;17.80;99.90;;;;;;6206164;23;20012;-84
2023/10/09 12:49:19;;;;;;;5.75;2.65;;;17.70;99.90;;;;;;6229901;23;20016;-84
2023/10/09 12:51:45;;;;;;;8.15;2.40;;;17.80;99.90;;;;;;6206598;23;20095;-84
2023/10/09 12:54:14;;;;;;;7.78;2.50;;;17.80;99.90;;;;;;6231501;23;20048;-84
2023/10/09 12:56:48;;;;;;;5.10;2.25;;;17.70;99.90;;;;;;6208067;23;20486;-84
2023/10/09 12:59:14;;;;;;;10.80;2.53;;;17.80;99.90;;;;;;6207551;23;20027;-84
2023/10/09 13:01:44;;;;;;;6.53;2.53;;;17.70;99.90;;;;;;6207925;23;20061;-84
2023/10/09 13:04:17;;;;;;;7.15;2.10;;;17.80;99.90;;;;;;6207274;23;20472;-83
2023/10/09 13:06:44;;;;;;;3.75;1.77;;;17.80;99.90;;;;;;6208245;23;20016;-84
2023/10/09 13:09:15;;;;;;;5.85;2.00;;;17.90;99.90;;;;;;6205686;23;20020;-84
2023/10/09 13:11:42;;;;;;;5.65;2.17;;;18.00;99.90;;;;;;6232960;23;20460;-84
2023/10/09 13:14:21;;;;;;;10.40;2.08;;;18.00;99.90;;;;;;6206830;23;20016;-84
2023/10/09 13:16:50;;;;;;;6.05;2.10;;;18.00;99.90;;;;;;6207047;23;20016;-84
2023/10/09 13:19:17;;;;;;;5.50;1.77;;;18.00;99.90;;;;;;6206644;23;20020;-83
2023/10/09 13:21:43;;;;;;;6.38;1.80;;;17.90;99.90;;;;;;6231938;23;20303;-84
2023/10/09 13:24:23;;;;;;;6.07;1.67;;;17.80;99.90;;;;;;6205536;23;20019;-84
2023/10/09 13:26:52;;;;;;;8.98;1.90;;;17.90;99.90;;;;;;6206942;23;20052;-84
2023/10/09 13:29:22;;;;;;;4.03;1.58;;;17.70;99.90;;;;;;6206837;23;20062;-84
2023/10/09 13:31:51;;;;;;;4.70;1.88;;;17.70;99.90;;;;;;6205978;23;20487;-83
2023/10/09 13:34:17;;;;;;;6.80;1.55;;;17.80;99.90;;;;;;6206111;23;20565;-84
2023/10/09 13:37:11;;;;;;;6.28;1.77;;;17.80;99.90;;;;;;6232921;23;20349;-85
2023/10/09 13:39:30;;;;;;;6.20;1.75;;;17.80;99.90;;;;;;6230513;23;20016;-84
2023/10/09 13:42:01;;;;;;;3.50;1.52;;;17.80;99.90;;;;;;6231887;23;20023;-84
2023/10/09 13:44:34;;;;;;;7.05;2.13;;;17.70;99.90;;;;;;6206936;23;20524;-84
2023/10/09 13:47:04;;;;;;;6.93;1.90;;;17.70;99.90;;;;;;6231926;23;20019;-84
2023/10/09 13:49:31;;;;;;;5.97;2.00;;;17.70;99.90;;;;;;6206593;23;20012;-84
2023/10/09 13:51:59;;;;;;;5.93;2.50;;;17.70;99.90;;;;;;6233257;23;20016;-87
2023/10/09 13:57:04;;;;;;;6.40;2.45;;;17.70;99.90;;;;;;6229437;23;20016;-88
2023/10/09 13:59:30;;;;;;;7.55;2.15;;;17.60;99.90;;;;;;6229531;23;20027;-89
2023/10/09 14:01:56;;;;;;;7.95;2.70;;;17.60;99.90;;;;;;6230255;23;20016;-88
2023/10/09 14:04:28;;;;;;;5.28;2.03;;;17.50;99.90;;;;;;6204556;23;20016;-87
2023/10/09 14:06:56;;;;;;;8.45;2.08;;;17.40;99.90;;;;;;6204233;23;20026;-88
2023/10/09 14:09:44;;;;;;;3.50;1.80;;;17.40;99.90;;;;;;6202897;23;20026;-87
2023/10/09 14:12:11;;;;;;;6.72;2.13;;;17.40;99.90;;;;;;6204241;23;20016;-88
2023/10/09 14:14:47;;;;;;;5.07;1.90;;;17.50;99.90;;;;;;6230517;23;20077;-88
2023/10/09 14:17:23;;;;;;;6.00;2.20;;;17.40;99.90;;;;;;6229225;23;20091;-87
2023/10/09 14:20:56;;;;;;;4.45;2.13;;;17.50;99.90;;;;;;6208981;23;20035;-88
2023/10/09 14:22:52;;;;;;;5.68;2.20;;;17.40;99.90;;;;;;6215748;23;20106;-88
2023/10/09 14:25:20;;;;;;;4.97;2.35;;;17.40;99.90;;;;;;6203963;23;20012;-88
2023/10/09 14:27:48;;;;;;;8.50;2.50;;;17.30;99.90;;;;;;6228853;23;20512;-88
2023/10/09 14:30:22;;;;;;;3.53;2.33;;;17.40;99.90;;;;;;6229478;23;20027;-87
2023/10/09 14:32:55;;;;;;;6.85;2.50;;;17.30;99.90;;;;;;6208867;23;20024;-88
2023/10/09 14:35:26;;;;;;;4.72;2.15;;;17.30;99.90;;;;;;6203867;23;20043;-87
2023/10/09 14:37:55;;;;;;;4.10;2.42;;;17.30;99.90;;;;;;6203935;23;20316;-88
2023/10/09 14:40:29;;;;;;;3.97;2.00;;;17.30;99.90;;;;;;6204253;23;20055;-87
2023/10/09 14:42:57;;;;;;;6.82;2.42;;;17.30;99.90;;;;;;6202935;23;20023;-87
2023/10/09 14:45:26;;;;;;;4.70;2.55;;;17.40;99.90;;;;;;6204225;23;20429;-88
2023/10/09 14:47:55;;;;;;;5.78;2.13;;;17.30;99.90;;;;;;6229409;23;20012;-88
2023/10/09 14:50:22;;;;;;;5.78;2.40;;;17.30;99.90;;;;;;6203881;23;20463;-88
2023/10/09 14:52:51;;;;;;;4.28;2.40;;;17.30;99.90;;;;;;6203069;23;20158;-89
2023/10/09 14:55:56;;;;;;;6.15;2.42;;;17.30;99.90;;;;;;6207264;23;20016;-88
2023/10/09 14:58:37;;;;;;;4.35;2.08;;;17.30;99.90;;;;;;6228653;23;20046;-88
2023/10/09 15:01:15;;;;;;;4.93;2.05;;;17.20;99.90;;;;;;6221649;23;20015;-88
2023/10/09 15:03:41;;;;;;;8.07;2.47;;;17.20;99.90;;;;;;6231952;23;20476;-88
2023/10/09 15:06:10;;;;;;;3.97;1.77;;;17.20;99.90;;;;;;6207720;23;20032;-88
2023/10/09 15:08:36;;;;;;;5.70;2.00;;;17.20;99.90;;;;;;6205232;23;20020;-87
2023/10/09 15:11:02;;;;;;;6.07;1.92;;;17.10;99.90;;;;;;6208447;23;20019;-87
2023/10/09 15:13:28;;;;;;;4.35;2.00;;;17.20;99.90;;;;;;6206766;23;20078;-88
2023/10/09 15:15:55;;;;;;;3.63;1.90;;;17.10;99.90;;;;;;6232659;23;20179;-87
2023/10/09 15:18:22;;;;;;;6.05;2.10;;;17.10;99.90;;;;;;6206432;23;20016;-88
2023/10/09 15:20:51;;;;;;;3.85;1.85;;;17.20;99.90;;;;;;6233567;23;20012;-88
2023/10/09 15:23:19;;;;;;;4.85;2.10;;;17.20;99.90;;;;;;6205724;23;20413;-88
2023/10/09 15:25:49;;;;;;;10.45;4.30;;;17.10;99.90;;;;;;6207638;23;20012;-88
2023/10/09 15:28:16;;;;;;;4.78;2.17;;;17.20;99.90;;;;;;6206598;23;20012;-88
2023/10/09 15:30:42;;;;;;;3.70;1.80;;;17.20;99.90;;;;;;6207439;23;20428;-88
2023/10/09 15:33:10;;;;;;;6.78;2.15;;;17.20;99.90;;;;;;6207001;23;20031;-88
2023/10/09 15:35:37;;;;;;;5.40;1.90;;;17.10;99.90;;;;;;6207250;23;20015;-88
2023/10/09 15:38:05;;;;;;;6.68;1.95;;;17.20;99.90;;;;;;6205455;23;20016;-88
2023/10/09 15:40:36;;;;;;;3.58;1.55;;;17.10;99.90;;;;;;6233025;23;20063;-88
2023/10/09 15:43:04;;;;;;;5.07;2.00;;;17.10;99.90;;;;;;6205928;23;20523;-89
2023/10/09 15:45:31;;;;;;;3.45;1.80;;;17.00;99.90;;;;;;6231771;23;20082;-88
2023/10/09 15:47:59;;;;;;;6.72;2.25;;;17.00;99.90;;;;;;6206901;23;20018;-88
2023/10/09 15:50:25;;;;;;;9.13;2.10;;;16.90;99.90;;;;;;6231859;23;20278;-89
2023/10/09 15:52:55;;;;;;;6.47;2.03;;;16.90;99.90;;;;;;6205841;23;20055;-88